Time;durP1;ratioP1;P1;durP2;ratioP2;P2;SDS_P1;SDS_P2;PMS_P1;PMS_P2;Temp;Humidity;BMP_temperature;BMP_pressure;BME280_temperature;BME280_humidity;BME280_pressure;Samples;Min_cycle;Max_cycle;Signal;HPM_P1;HPM_P2
2023/10/28 00:00:32;;;;;;;18.83;16.00;;;;;;;;;;5036045;28;20176;-86
2023/10/28 00:02:58;;;;;;;26.20;16.73;;;;;;;;;;5019688;28;20193;-87
2023/10/28 00:05:24;;;;;;;25.07;15.90;;;;;;;;;;5024453;28;20182;-87
2023/10/28 00:07:51;;;;;;;22.70;15.33;;;;;;;;;;5017484;28;20205;-89
2023/10/28 00:10:18;;;;;;;21.07;15.50;;;;;;;;;;5036325;28;20180;-90
2023/10/28 00:12:44;;;;;;;21.93;15.53;;;;;;;;;;5016613;28;20200;-91
2023/10/28 00:15:13;;;;;;;21.03;14.27;;;;;;;;;;5016370;28;20210;-90
2023/10/28 00:17:39;;;;;;;28.67;14.33;;;;;;;;;;5016615;28;20181;-90
2023/10/28 00:20:06;;;;;;;19.60;13.47;;;;;;;;;;5030838;28;20238;-90
2023/10/28 00:22:32;;;;;;;23.13;13.07;;;;;;;;;;5018990;28;20231;-90
2023/10/28 00:24:58;;;;;;;20.80;12.60;;;;;;;;;;5019372;28;20181;-84
2023/10/28 00:27:25;;;;;;;25.03;13.10;;;;;;;;;;5042643;28;20220;-84
2023/10/28 00:29:54;;;;;;;21.77;12.57;;;;;;;;;;5035655;28;20222;-84
2023/10/28 00:32:23;;;;;;;19.87;11.87;;;;;;;;;;5035142;28;20184;-84
2023/10/28 00:34:52;;;;;;;21.60;12.00;;;;;;;;;;5035151;28;20273;-84
2023/10/28 00:37:18;;;;;;;22.23;13.23;;;;;;;;;;5018302;28;20272;-84
2023/10/28 00:39:44;;;;;;;19.17;12.83;;;;;;;;;;5048430;28;20184;-88
2023/10/28 00:42:13;;;;;;;23.30;12.30;;;;;;;;;;5015325;28;20189;-87
2023/10/28 00:44:42;;;;;;;16.70;11.40;;;;;;;;;;5019152;28;20283;-87
2023/10/28 00:47:09;;;;;;;18.77;11.13;;;;;;;;;;5018882;28;20227;-87
2023/10/28 00:49:36;;;;;;;19.03;10.50;;;;;;;;;;5034982;28;20180;-87
2023/10/28 00:52:02;;;;;;;15.60;10.13;;;;;;;;;;5039860;28;20196;-87
2023/10/28 00:54:28;;;;;;;19.37;9.90;;;;;;;;;;5039712;28;20219;-86
2023/10/28 00:56:55;;;;;;;22.87;10.43;;;;;;;;;;5031686;28;20197;-87
2023/10/28 00:59:21;;;;;;;16.17;9.43;;;;;;;;;;5015220;28;20264;-87
2023/10/28 01:01:47;;;;;;;25.47;10.73;;;;;;;;;;5012305;28;20212;-86
2023/10/28 01:04:13;;;;;;;18.70;10.57;;;;;;;;;;5018469;28;20188;-87
2023/10/28 01:06:39;;;;;;;16.23;9.53;;;;;;;;;;5026424;22;20189;-84
2023/10/28 01:09:07;;;;;;;17.43;9.77;;;;;;;;;;5038165;28;20275;-84
2023/10/28 01:11:37;;;;;;;17.13;9.77;;;;;;;;;;5021416;28;20199;-84
2023/10/28 01:14:03;;;;;;;17.20;8.73;;;;;;;;;;5053580;28;20254;-92
2023/10/28 01:16:29;;;;;;;17.53;9.27;;;;;;;;;;5018420;28;20177;-92
2023/10/28 01:18:55;;;;;;;18.33;9.53;;;;;;;;;;5046671;28;20254;-91
2023/10/28 01:21:21;;;;;;;20.63;9.47;;;;;;;;;;5044045;28;20222;-91
2023/10/28 01:23:48;;;;;;;16.03;9.20;;;;;;;;;;5021216;28;20180;-92
2023/10/28 01:26:14;;;;;;;15.60;9.40;;;;;;;;;;5038413;28;20186;-91
2023/10/28 01:28:40;;;;;;;17.10;8.27;;;;;;;;;;5021791;28;20192;-90
2023/10/28 01:31:06;;;;;;;19.63;8.03;;;;;;;;;;5021479;28;20192;-91
2023/10/28 01:33:32;;;;;;;19.20;7.97;;;;;;;;;;5021238;28;20195;-92
2023/10/28 01:35:58;;;;;;;19.43;8.23;;;;;;;;;;5021329;28;20237;-91
2023/10/28 01:38:24;;;;;;;17.33;7.60;;;;;;;;;;5040054;28;20180;-92
2023/10/28 01:40:51;;;;;;;13.87;7.57;;;;;;;;;;5055895;28;20214;-91
2023/10/28 01:43:18;;;;;;;14.90;7.57;;;;;;;;;;5055833;28;20186;-91
2023/10/28 01:45:44;;;;;;;21.83;8.10;;;;;;;;;;5022115;28;20184;-93
2023/10/28 01:48:10;;;;;;;16.90;7.37;;;;;;;;;;5048365;28;20194;-84
2023/10/28 01:50:37;;;;;;;21.70;7.60;;;;;;;;;;5019859;28;20183;-84
2023/10/28 01:53:03;;;;;;;15.47;7.23;;;;;;;;;;5020613;28;20199;-84
2023/10/28 01:55:29;;;;;;;18.23;7.30;;;;;;;;;;5036872;28;20296;-84
2023/10/28 01:57:56;;;;;;;17.33;7.13;;;;;;;;;;5017139;28;20197;-84
2023/10/28 02:00:22;;;;;;;13.50;6.57;;;;;;;;;;5021428;28;20183;-84
2023/10/28 02:02:50;;;;;;;16.33;6.60;;;;;;;;;;5037326;28;20184;-84
2023/10/28 02:05:16;;;;;;;19.37;7.00;;;;;;;;;;5021005;28;20242;-93
2023/10/28 02:07:43;;;;;;;15.40;7.10;;;;;;;;;;5054500;28;20259;-94
2023/10/28 02:10:09;;;;;;;20.57;6.80;;;;;;;;;;5020952;28;20183;-91
2023/10/28 02:12:35;;;;;;;19.93;7.10;;;;;;;;;;5055976;28;20259;-91
2023/10/28 02:15:05;;;;;;;15.83;6.77;;;;;;;;;;5038620;28;20211;-92
2023/10/28 02:17:31;;;;;;;15.47;6.73;;;;;;;;;;5037232;28;20176;-90
2023/10/28 02:19:57;;;;;;;19.57;7.37;;;;;;;;;;5020655;28;20207;-89
2023/10/28 02:22:23;;;;;;;15.73;6.63;;;;;;;;;;5017173;28;20192;-90
2023/10/28 02:24:49;;;;;;;18.17;7.13;;;;;;;;;;5017025;28;20171;-90
2023/10/28 02:27:15;;;;;;;14.13;6.87;;;;;;;;;;5022290;28;20179;-90
2023/10/28 02:29:41;;;;;;;15.90;6.60;;;;;;;;;;5020486;28;20211;-90
2023/10/28 02:32:09;;;;;;;18.33;6.73;;;;;;;;;;5017289;28;20204;-90
2023/10/28 02:34:36;;;;;;;18.27;6.70;;;;;;;;;;5033494;28;20207;-90
2023/10/28 02:37:02;;;;;;;17.83;6.20;;;;;;;;;;5017267;28;20180;-92
2023/10/28 02:39:28;;;;;;;16.50;6.47;;;;;;;;;;5017257;28;20169;-91
2023/10/28 02:41:54;;;;;;;17.97;6.93;;;;;;;;;;5034472;28;20220;-92
2023/10/28 02:44:20;;;;;;;13.53;6.60;;;;;;;;;;5017197;28;20176;-91
2023/10/28 02:46:46;;;;;;;16.40;6.50;;;;;;;;;;5001945;28;20191;-92
2023/10/28 02:49:12;;;;;;;15.37;6.77;;;;;;;;;;5001109;28;20267;-92
2023/10/28 02:51:39;;;;;;;15.30;6.37;;;;;;;;;;5022805;28;20190;-91
2023/10/28 02:54:06;;;;;;;14.23;6.40;;;;;;;;;;5031528;28;20208;-84
2023/10/28 02:56:32;;;;;;;13.13;5.77;;;;;;;;;;5031183;28;20176;-84
2023/10/28 02:58:58;;;;;;;15.00;5.87;;;;;;;;;;5027585;28;20202;-90
2023/10/28 03:01:25;;;;;;;16.63;6.07;;;;;;;;;;5046135;28;20226;-89
2023/10/28 03:03:53;;;;;;;13.33;5.80;;;;;;;;;;5035083;28;20267;-89
2023/10/28 03:06:21;;;;;;;10.03;6.03;;;;;;;;;;5023566;28;20192;-87
2023/10/28 03:08:47;;;;;;;12.17;6.03;;;;;;;;;;5023955;28;20242;-87
2023/10/28 03:11:13;;;;;;;12.57;5.80;;;;;;;;;;5040522;28;20172;-90
2023/10/28 03:13:39;;;;;;;12.17;5.80;;;;;;;;;;5024234;28;20183;-90
2023/10/28 03:16:06;;;;;;;11.17;5.77;;;;;;;;;;5044980;28;20199;-90
2023/10/28 03:18:32;;;;;;;12.43;5.40;;;;;;;;;;5033185;28;20188;-90
2023/10/28 03:20:58;;;;;;;15.63;5.80;;;;;;;;;;5023401;28;20184;-90
2023/10/28 03:23:25;;;;;;;16.03;6.50;;;;;;;;;;5040558;28;20188;-90
2023/10/28 03:25:52;;;;;;;13.50;5.80;;;;;;;;;;5055228;28;20200;-90
2023/10/28 03:28:18;;;;;;;12.20;5.73;;;;;;;;;;5039962;28;20175;-87
2023/10/28 03:30:46;;;;;;;10.40;5.37;;;;;;;;;;5044357;28;20180;-87
2023/10/28 03:33:12;;;;;;;11.40;5.50;;;;;;;;;;5029928;28;20184;-85
2023/10/28 03:35:38;;;;;;;11.60;5.33;;;;;;;;;;5044078;28;20214;-84
2023/10/28 03:38:04;;;;;;;10.90;5.70;;;;;;;;;;5019866;28;20168;-84
2023/10/28 03:40:33;;;;;;;9.87;5.33;;;;;;;;;;5019960;28;20204;-84
2023/10/28 03:42:59;;;;;;;11.87;5.20;;;;;;;;;;5032225;28;20194;-93
2023/10/28 03:45:25;;;;;;;8.60;5.13;;;;;;;;;;5020307;28;20192;-91
2023/10/28 03:47:51;;;;;;;8.07;5.37;;;;;;;;;;5004113;28;20195;-92
2023/10/28 03:50:17;;;;;;;11.07;5.30;;;;;;;;;;5021611;28;20184;-92
2023/10/28 03:52:43;;;;;;;11.33;4.70;;;;;;;;;;5028010;28;20187;-93
2023/10/28 03:55:09;;;;;;;11.53;4.77;;;;;;;;;;5022172;28;20216;-91
2023/10/28 03:57:35;;;;;;;11.30;4.13;;;;;;;;;;5003948;28;20192;-91
2023/10/28 04:00:02;;;;;;;8.67;4.60;;;;;;;;;;5020024;28;20215;-86
2023/10/28 04:02:28;;;;;;;10.83;4.20;;;;;;;;;;5003087;28;20185;-87
2023/10/28 04:04:55;;;;;;;9.70;4.40;;;;;;;;;;5013109;28;20184;-87
2023/10/28 04:07:21;;;;;;;8.53;3.80;;;;;;;;;;5021802;28;20235;-87
2023/10/28 04:09:47;;;;;;;9.83;4.10;;;;;;;;;;5022871;28;20188;-92
2023/10/28 04:12:13;;;;;;;6.80;3.90;;;;;;;;;;5022455;28;20176;-92
2023/10/28 04:14:39;;;;;;;6.20;3.80;;;;;;;;;;5039232;28;20215;-92
2023/10/28 04:17:05;;;;;;;5.70;3.80;;;;;;;;;;5039233;28;20187;-92
2023/10/28 04:19:31;;;;;;;7.57;3.77;;;;;;;;;;5039688;28;20176;-91
2023/10/28 04:21:57;;;;;;;7.67;3.87;;;;;;;;;;5039408;28;20186;-93
2023/10/28 04:24:26;;;;;;;7.30;4.00;;;;;;;;;;5039329;28;20183;-91
2023/10/28 04:26:52;;;;;;;6.27;3.57;;;;;;;;;;5019755;28;20227;-89
2023/10/28 04:29:19;;;;;;;6.40;3.87;;;;;;;;;;5032033;28;20194;-91
2023/10/28 04:31:45;;;;;;;8.03;3.90;;;;;;;;;;5039062;28;20216;-90
2023/10/28 04:34:11;;;;;;;7.17;4.00;;;;;;;;;;5025738;28;20203;-92
2023/10/28 04:36:37;;;;;;;5.37;3.50;;;;;;;;;;5057016;28;20252;-92
2023/10/28 04:39:03;;;;;;;6.77;3.77;;;;;;;;;;5022278;28;20211;-91
2023/10/28 04:41:29;;;;;;;6.27;3.70;;;;;;;;;;5037624;28;20192;-92
2023/10/28 04:43:55;;;;;;;7.13;3.80;;;;;;;;;;5019181;28;20192;-92
2023/10/28 04:46:21;;;;;;;8.13;3.70;;;;;;;;;;5019142;28;20184;-93
2023/10/28 04:48:47;;;;;;;9.27;4.17;;;;;;;;;;5018989;28;20180;-92
2023/10/28 04:51:15;;;;;;;8.03;3.80;;;;;;;;;;5018886;28;20212;-84
2023/10/28 04:53:41;;;;;;;7.00;3.77;;;;;;;;;;5038114;28;20187;-85
2023/10/28 04:56:10;;;;;;;8.97;3.87;;;;;;;;;;5031527;28;20192;-84
2023/10/28 04:58:36;;;;;;;6.03;3.77;;;;;;;;;;5037587;28;20274;-84
2023/10/28 05:01:02;;;;;;;7.47;3.90;;;;;;;;;;5046198;28;20225;-84
2023/10/28 05:03:28;;;;;;;6.37;4.20;;;;;;;;;;5041934;28;20179;-84
2023/10/28 05:05:54;;;;;;;6.93;4.07;;;;;;;;;;5034559;28;20242;-84
2023/10/28 05:08:20;;;;;;;5.50;3.80;;;;;;;;;;5038424;28;20273;-88
2023/10/28 05:10:47;;;;;;;5.77;3.80;;;;;;;;;;5021686;28;20261;-87
2023/10/28 05:13:13;;;;;;;6.27;3.60;;;;;;;;;;5018661;28;20283;-87
2023/10/28 05:15:39;;;;;;;6.60;3.80;;;;;;;;;;5022696;28;20251;-87
2023/10/28 05:18:05;;;;;;;8.03;3.70;;;;;;;;;;5038692;28;20176;-87
2023/10/28 05:20:34;;;;;;;7.20;3.70;;;;;;;;;;5021800;28;20271;-86
2023/10/28 05:23:00;;;;;;;5.33;3.70;;;;;;;;;;5046516;28;20212;-84
2023/10/28 05:25:26;;;;;;;5.37;3.90;;;;;;;;;;5029734;28;20331;-84
2023/10/28 05:27:52;;;;;;;7.97;3.70;;;;;;;;;;5018041;28;20187;-84
2023/10/28 05:30:18;;;;;;;6.50;4.03;;;;;;;;;;5030509;28;20175;-85
2023/10/28 05:32:44;;;;;;;7.23;4.40;;;;;;;;;;5035429;28;20190;-85
2023/10/28 05:35:11;;;;;;;6.07;4.20;;;;;;;;;;5005745;28;20211;-84
2023/10/28 05:37:38;;;;;;;6.77;4.27;;;;;;;;;;5001541;28;20180;-85
2023/10/28 05:40:04;;;;;;;8.00;4.40;;;;;;;;;;5036601;28;20202;-93
2023/10/28 05:42:30;;;;;;;7.50;4.30;;;;;;;;;;5021742;28;20186;-90
2023/10/28 05:44:56;;;;;;;5.83;4.33;;;;;;;;;;5021606;28;20210;-91
2023/10/28 05:47:22;;;;;;;8.07;5.03;;;;;;;;;;5038244;28;20183;-93
2023/10/28 05:49:49;;;;;;;10.80;4.97;;;;;;;;;;5038868;28;20184;-92
2023/10/28 05:52:18;;;;;;;8.87;4.83;;;;;;;;;;5037980;28;20175;-91
2023/10/28 05:54:44;;;;;;;8.73;5.10;;;;;;;;;;5017600;28;20299;-91
2023/10/28 05:57:13;;;;;;;7.53;4.57;;;;;;;;;;5029308;28;20180;-90
2023/10/28 05:59:39;;;;;;;7.47;4.70;;;;;;;;;;5013635;28;20197;-90
2023/10/28 06:02:05;;;;;;;8.53;5.10;;;;;;;;;;5016178;28;20230;-89
2023/10/28 06:04:31;;;;;;;7.10;4.70;;;;;;;;;;5013540;28;20409;-90
2023/10/28 06:06:58;;;;;;;9.53;4.40;;;;;;;;;;5031128;28;20218;-90
2023/10/28 06:09:24;;;;;;;7.20;4.30;;;;;;;;;;5019844;28;20190;-90
2023/10/28 06:11:50;;;;;;;7.03;3.77;;;;;;;;;;5028836;28;20181;-90
2023/10/28 06:14:19;;;;;;;11.97;4.70;;;;;;;;;;5012259;28;20208;-90
2023/10/28 06:16:46;;;;;;;9.10;4.67;;;;;;;;;;5028801;28;20180;-90
2023/10/28 06:19:12;;;;;;;6.43;4.57;;;;;;;;;;5035197;28;20273;-90
2023/10/28 06:21:41;;;;;;;6.30;4.20;;;;;;;;;;5030065;28;20271;-90
2023/10/28 06:24:08;;;;;;;7.93;4.73;;;;;;;;;;5013372;28;20250;-90
2023/10/28 06:26:34;;;;;;;5.90;4.23;;;;;;;;;;5011953;28;20187;-90
2023/10/28 06:29:00;;;;;;;6.57;4.20;;;;;;;;;;5011783;28;20183;-90
2023/10/28 06:31:26;;;;;;;7.47;4.60;;;;;;;;;;5034454;28;20180;-87
2023/10/28 06:33:52;;;;;;;8.07;4.30;;;;;;;;;;5013046;28;20205;-87
2023/10/28 06:36:18;;;;;;;9.27;4.73;;;;;;;;;;5013207;28;20195;-87
2023/10/28 06:38:45;;;;;;;7.67;5.07;;;;;;;;;;5013228;28;20169;-86
2023/10/28 06:41:11;;;;;;;9.17;4.67;;;;;;;;;;5033684;28;20267;-87
2023/10/28 06:43:37;;;;;;;8.87;5.20;;;;;;;;;;5020203;28;20271;-86
2023/10/28 06:46:04;;;;;;;9.13;5.07;;;;;;;;;;5020263;28;20188;-87
2023/10/28 06:48:30;;;;;;;8.70;4.80;;;;;;;;;;5048549;28;20176;-90
2023/10/28 06:50:56;;;;;;;9.60;5.00;;;;;;;;;;5046104;28;20268;-90
2023/10/28 06:53:25;;;;;;;8.87;5.30;;;;;;;;;;5030491;28;20182;-90
2023/10/28 06:55:51;;;;;;;8.13;5.10;;;;;;;;;;5010939;28;20296;-89
2023/10/28 06:58:17;;;;;;;11.17;5.17;;;;;;;;;;5024814;28;20176;-90
2023/10/28 07:00:43;;;;;;;7.10;5.40;;;;;;;;;;5013600;28;20200;-90
2023/10/28 07:03:09;;;;;;;11.17;5.43;;;;;;;;;;5015518;28;20187;-90
2023/10/28 07:05:38;;;;;;;8.23;5.33;;;;;;;;;;5028647;28;20194;-90
2023/10/28 07:08:04;;;;;;;8.27;5.50;;;;;;;;;;5035938;28;20235;-90
2023/10/28 07:10:30;;;;;;;10.20;5.50;;;;;;;;;;5036634;28;20214;-90
2023/10/28 07:12:56;;;;;;;8.07;4.60;;;;;;;;;;5041837;28;20191;-90
2023/10/28 07:15:22;;;;;;;9.53;5.10;;;;;;;;;;5033218;28;20286;-89
2023/10/28 07:17:50;;;;;;;11.97;5.10;;;;;;;;;;5049530;28;20203;-90
2023/10/28 07:20:19;;;;;;;6.83;4.53;;;;;;;;;;5024239;28;20187;-86
2023/10/28 07:22:46;;;;;;;7.90;4.53;;;;;;;;;;5019654;28;20188;-86
2023/10/28 07:25:12;;;;;;;8.77;4.50;;;;;;;;;;5019549;28;20184;-86
2023/10/28 07:27:38;;;;;;;10.83;4.43;;;;;;;;;;5016349;28;20188;-87
2023/10/28 07:30:05;;;;;;;8.50;4.07;;;;;;;;;;5020622;28;20181;-83
2023/10/28 07:32:31;;;;;;;8.27;3.97;;;;;;;;;;5016312;28;20199;-85
2023/10/28 07:34:57;;;;;;;10.37;3.80;;;;;;;;;;5031304;28;20219;-85
2023/10/28 07:37:24;;;;;;;8.03;4.10;;;;;;;;;;5039080;28;20195;-85
2023/10/28 07:39:52;;;;;;;9.90;4.40;;;;;;;;;;5028821;28;20177;-85
2023/10/28 07:42:22;;;;;;;6.90;4.10;;;;;;;;;;5038112;28;20180;-85
2023/10/28 07:44:48;;;;;;;9.97;3.80;;;;;;;;;;5036524;28;20199;-86
2023/10/28 07:47:14;;;;;;;9.07;4.23;;;;;;;;;;5020949;28;20195;-85
2023/10/28 07:49:40;;;;;;;7.90;3.77;;;;;;;;;;5034665;28;20195;-85
2023/10/28 07:52:07;;;;;;;9.40;3.93;;;;;;;;;;5042877;28;20176;-85
2023/10/28 07:54:33;;;;;;;8.70;3.90;;;;;;;;;;5043442;28;20215;-89
2023/10/28 07:56:59;;;;;;;8.13;3.90;;;;;;;;;;5037784;28;20224;-90
2023/10/28 07:59:30;;;;;;;5.47;3.83;;;;;;;;;;5036012;28;20173;-90
2023/10/28 08:01:58;;;;;;;6.40;3.83;;;;;;;;;;5023270;28;20211;-90
2023/10/28 08:04:24;;;;;;;9.67;4.30;;;;;;;;;;5008034;28;20199;-90
2023/10/28 08:06:51;;;;;;;8.27;4.00;;;;;;;;;;5003143;28;20241;-90
2023/10/28 08:09:17;;;;;;;7.77;4.30;;;;;;;;;;5028680;28;20195;-90
2023/10/28 08:11:43;;;;;;;9.07;4.10;;;;;;;;;;5025897;28;20192;-83
2023/10/28 08:14:09;;;;;;;7.40;4.43;;;;;;;;;;5007914;28;20241;-84
2023/10/28 08:16:35;;;;;;;6.97;4.00;;;;;;;;;;5019394;28;20185;-83
2023/10/28 08:19:03;;;;;;;5.53;3.90;;;;;;;;;;5011810;28;20184;-83
2023/10/28 08:21:29;;;;;;;6.87;4.03;;;;;;;;;;5015745;28;20199;-85
2023/10/28 08:23:55;;;;;;;7.47;4.23;;;;;;;;;;5031655;28;20188;-85
2023/10/28 08:26:21;;;;;;;5.43;3.70;;;;;;;;;;5002641;28;20189;-90
2023/10/28 08:28:50;;;;;;;7.17;4.17;;;;;;;;;;5019823;28;20191;-90
2023/10/28 08:31:17;;;;;;;8.17;4.33;;;;;;;;;;5019048;28;20271;-90
2023/10/28 08:33:43;;;;;;;8.40;4.67;;;;;;;;;;5003187;28;20180;-90
2023/10/28 08:36:10;;;;;;;5.43;3.70;;;;;;;;;;5019045;28;20280;-90
2023/10/28 08:38:39;;;;;;;5.03;4.00;;;;;;;;;;5019376;28;20212;-90
2023/10/28 08:41:05;;;;;;;9.57;4.30;;;;;;;;;;5003066;28;20180;-90
2023/10/28 08:43:35;;;;;;;6.23;4.10;;;;;;;;;;5032491;28;20270;-88
2023/10/28 08:46:02;;;;;;;9.07;4.17;;;;;;;;;;5029165;28;20227;-84
2023/10/28 08:48:28;;;;;;;8.37;4.43;;;;;;;;;;5019292;28;20185;-88
2023/10/28 08:50:56;;;;;;;9.70;4.10;;;;;;;;;;5037239;28;20188;-88
2023/10/28 08:53:22;;;;;;;9.73;4.50;;;;;;;;;;5041188;22;20240;-90
2023/10/28 08:55:53;;;;;;;11.90;4.23;;;;;;;;;;5035301;28;20223;-90
2023/10/28 08:58:21;;;;;;;9.60;4.03;;;;;;;;;;5036858;28;20184;-90
2023/10/28 09:00:47;;;;;;;9.73;4.03;;;;;;;;;;5028894;28;20199;-88
2023/10/28 09:03:17;;;;;;;7.57;3.80;;;;;;;;;;5029993;28;20341;-89
2023/10/28 09:05:43;;;;;;;6.87;4.13;;;;;;;;;;5026940;28;20371;-88
2023/10/28 09:08:10;;;;;;;8.97;4.03;;;;;;;;;;5017561;28;20204;-88
2023/10/28 09:10:37;;;;;;;7.37;4.23;;;;;;;;;;5034312;28;20195;-88
2023/10/28 09:13:07;;;;;;;9.97;4.40;;;;;;;;;;5025716;28;20199;-90
2023/10/28 09:15:37;;;;;;;7.70;3.70;;;;;;;;;;5021701;28;20219;-87
2023/10/28 09:18:03;;;;;;;6.07;4.00;;;;;;;;;;5043972;28;20196;-89
2023/10/28 09:20:29;;;;;;;8.57;3.83;;;;;;;;;;5033902;28;20275;-89
2023/10/28 09:22:55;;;;;;;8.53;4.07;;;;;;;;;;5030544;28;20190;-88
2023/10/28 09:25:22;;;;;;;8.47;3.67;;;;;;;;;;5026237;28;20199;-89
2023/10/28 09:27:48;;;;;;;7.10;3.47;;;;;;;;;;5029393;28;20195;-88
2023/10/28 09:30:21;;;;;;;7.47;3.70;;;;;;;;;;5030329;28;20187;-89
2023/10/28 09:32:48;;;;;;;7.97;3.67;;;;;;;;;;5044895;28;20196;-88
2023/10/28 09:35:14;;;;;;;8.03;3.57;;;;;;;;;;5027089;28;20227;-88
2023/10/28 09:37:40;;;;;;;7.63;3.30;;;;;;;;;;5031274;28;20262;-87
2023/10/28 09:40:07;;;;;;;7.67;3.40;;;;;;;;;;5035853;28;20180;-87
2023/10/28 09:42:34;;;;;;;6.33;3.30;;;;;;;;;;5027567;28;20244;-88
2023/10/28 09:45:02;;;;;;;7.27;3.07;;;;;;;;;;5035904;28;20227;-87
2023/10/28 09:47:38;;;;;;;7.53;3.30;;;;;;;;;;5035655;28;20194;-88
2023/10/28 09:50:07;;;;;;;7.77;3.03;;;;;;;;;;5033296;28;20282;-90
2023/10/28 09:52:33;;;;;;;7.03;3.20;;;;;;;;;;5035954;28;20237;-90
2023/10/28 09:55:05;;;;;;;7.73;3.30;;;;;;;;;;5029711;28;20307;-91
2023/10/28 09:57:31;;;;;;;6.80;3.00;;;;;;;;;;5031493;28;20318;-90
2023/10/28 09:59:58;;;;;;;8.00;3.03;;;;;;;;;;5028966;28;20275;-91
2023/10/28 10:02:49;;;;;;;7.53;3.10;;;;;;;;;;5034840;28;20187;-91
2023/10/28 10:05:25;;;;;;;9.40;2.90;;;;;;;;;;5024639;28;20190;-90
2023/10/28 10:07:52;;;;;;;8.43;3.20;;;;;;;;;;5037106;28;20267;-86
2023/10/28 10:10:20;;;;;;;6.40;2.80;;;;;;;;;;5018382;28;20226;-87
2023/10/28 10:12:54;;;;;;;7.57;3.03;;;;;;;;;;5028748;28;20222;-87
2023/10/28 10:15:20;;;;;;;7.10;2.90;;;;;;;;;;5036557;28;20263;-87
2023/10/28 10:17:56;;;;;;;6.97;3.00;;;;;;;;;;5036093;28;20191;-86
2023/10/28 10:20:25;;;;;;;6.03;2.37;;;;;;;;;;5033758;28;20196;-87
2023/10/28 10:22:59;;;;;;;6.77;2.80;;;;;;;;;;5028586;28;20214;-86
2023/10/28 10:25:32;;;;;;;8.67;2.90;;;;;;;;;;5009982;28;20230;-85
2023/10/28 10:28:11;;;;;;;7.20;2.63;;;;;;;;;;5018146;28;20180;-91
2023/10/28 10:30:37;;;;;;;8.00;2.53;;;;;;;;;;5017343;28;20191;-91
2023/10/28 10:33:03;;;;;;;7.03;2.93;;;;;;;;;;5019563;28;20219;-92
2023/10/28 10:35:31;;;;;;;6.77;2.70;;;;;;;;;;5038080;28;20258;-91
2023/10/28 10:38:04;;;;;;;7.13;2.60;;;;;;;;;;5039400;28;20183;-93
2023/10/28 10:40:32;;;;;;;6.80;2.57;;;;;;;;;;5019998;28;20203;-92
2023/10/28 10:43:04;;;;;;;7.43;2.70;;;;;;;;;;5033768;28;20180;-91
2023/10/28 10:45:30;;;;;;;4.10;2.20;;;;;;;;;;5018350;28;20207;-92
2023/10/28 10:47:58;;;;;;;5.37;2.23;;;;;;;;;;5018102;28;20184;-91
2023/10/28 10:50:24;;;;;;;5.40;2.30;;;;;;;;;;5019385;28;20184;-90
2023/10/28 10:52:51;;;;;;;5.97;2.20;;;;;;;;;;5021453;28;20319;-92
2023/10/28 10:55:23;;;;;;;7.60;2.40;;;;;;;;;;5028324;28;20223;-91
2023/10/28 10:57:52;;;;;;;8.10;2.30;;;;;;;;;;5033051;28;20205;-87
2023/10/28 11:00:19;;;;;;;6.03;2.20;;;;;;;;;;5023659;28;20248;-87
2023/10/28 11:02:46;;;;;;;8.00;2.97;;;;;;;;;;5033388;28;20223;-88
2023/10/28 11:05:13;;;;;;;7.47;2.33;;;;;;;;;;5034192;28;20256;-87
2023/10/28 11:07:39;;;;;;;8.77;2.27;;;;;;;;;;5030805;28;20193;-88
2023/10/28 11:10:08;;;;;;;6.03;2.40;;;;;;;;;;5031963;28;20592;-88
2023/10/28 11:12:36;;;;;;;6.60;2.70;;;;;;;;;;5013009;28;20439;-88
2023/10/28 11:15:06;;;;;;;7.07;2.40;;;;;;;;;;5027012;28;20468;-87
2023/10/28 11:17:32;;;;;;;5.53;2.10;;;;;;;;;;5025817;28;20185;-87
2023/10/28 11:20:00;;;;;;;6.50;2.13;;;;;;;;;;5030045;28;20217;-88
2023/10/28 11:22:26;;;;;;;4.40;1.97;;;;;;;;;;5022800;28;20235;-88
2023/10/28 11:24:55;;;;;;;6.70;2.27;;;;;;;;;;5029122;28;20188;-87
2023/10/28 11:27:22;;;;;;;8.87;2.30;;;;;;;;;;5036210;28;20192;-88
2023/10/28 11:29:50;;;;;;;6.33;2.00;;;;;;;;;;5043438;28;20185;-91
2023/10/28 11:32:16;;;;;;;8.00;2.53;;;;;;;;;;5042708;28;20254;-91
2023/10/28 11:34:44;;;;;;;9.13;2.93;;;;;;;;;;5048284;28;20244;-91
2023/10/28 11:37:11;;;;;;;6.07;2.00;;;;;;;;;;5047901;28;20200;-91
2023/10/28 11:39:39;;;;;;;4.00;2.00;;;;;;;;;;5025020;28;20239;-90
2023/10/28 11:42:12;;;;;;;6.40;2.10;;;;;;;;;;5027691;28;20257;-91
2023/10/28 11:44:40;;;;;;;5.37;2.17;;;;;;;;;;5038266;28;20185;-90
2023/10/28 11:47:07;;;;;;;7.27;2.07;;;;;;;;;;5037251;28;20185;-88
2023/10/28 11:49:34;;;;;;;8.57;2.00;;;;;;;;;;5018059;28;20192;-88
2023/10/28 11:52:00;;;;;;;5.17;2.10;;;;;;;;;;5029112;28;20188;-87
2023/10/28 11:54:29;;;;;;;7.57;2.20;;;;;;;;;;5034202;28;20239;-91
2023/10/28 11:56:55;;;;;;;6.30;1.97;;;;;;;;;;5027246;28;20211;-91
2023/10/28 11:59:21;;;;;;;8.33;2.30;;;;;;;;;;5036958;28;20212;-90
2023/10/28 12:01:48;;;;;;;8.57;2.00;;;;;;;;;;5034362;28;20181;-91
2023/10/28 12:04:15;;;;;;;9.67;2.40;;;;;;;;;;5026108;28;20190;-88
2023/10/28 12:06:42;;;;;;;5.37;2.00;;;;;;;;;;5027681;28;20260;-88
2023/10/28 12:09:12;;;;;;;5.73;2.00;;;;;;;;;;5037848;28;20196;-88
2023/10/28 12:11:38;;;;;;;10.67;2.43;;;;;;;;;;5028900;28;20225;-88
2023/10/28 12:14:11;;;;;;;8.20;2.20;;;;;;;;;;5037384;28;20184;-90
2023/10/28 12:16:47;;;;;;;7.73;2.10;;;;;;;;;;5032850;28;20191;-89
2023/10/28 12:19:13;;;;;;;10.30;2.60;;;;;;;;;;5034262;28;20188;-90
2023/10/28 12:21:41;;;;;;;8.30;2.47;;;;;;;;;;5037355;28;20226;-89
2023/10/28 12:24:07;;;;;;;7.20;2.40;;;;;;;;;;5036619;28;20184;-90
2023/10/28 12:26:34;;;;;;;7.20;2.40;;;;;;;;;;5032967;28;20240;-92
2023/10/28 12:29:00;;;;;;;7.30;2.70;;;;;;;;;;5050425;28;20181;-91
2023/10/28 12:31:26;;;;;;;9.43;2.40;;;;;;;;;;5036161;28;20212;-92
2023/10/28 12:33:53;;;;;;;9.57;2.50;;;;;;;;;;5035849;28;20184;-91
2023/10/28 12:36:20;;;;;;;8.87;2.63;;;;;;;;;;5028246;28;20188;-91
2023/10/28 12:38:46;;;;;;;6.53;2.30;;;;;;;;;;5032126;28;20268;-91
2023/10/28 12:41:12;;;;;;;10.00;2.50;;;;;;;;;;5020536;28;20185;-92
2023/10/28 12:43:39;;;;;;;9.10;2.47;;;;;;;;;;5032581;28;20197;-91
2023/10/28 12:46:05;;;;;;;9.97;2.60;;;;;;;;;;5036053;28;20193;-91
2023/10/28 12:48:34;;;;;;;7.77;2.40;;;;;;;;;;5020035;28;20231;-92
2023/10/28 12:51:02;;;;;;;9.57;2.70;;;;;;;;;;5036478;28;20208;-92
2023/10/28 12:53:29;;;;;;;8.70;2.43;;;;;;;;;;5036236;28;20224;-92
2023/10/28 12:55:55;;;;;;;9.97;2.83;;;;;;;;;;5039472;28;20216;-92
2023/10/28 12:58:31;;;;;;;9.30;2.80;;;;;;;;;;5034250;28;20184;-91
2023/10/28 13:00:57;;;;;;;13.37;2.90;;;;;;;;;;5024090;28;20270;-92
2023/10/28 13:03:23;;;;;;;12.33;3.63;;;;;;;;;;5034760;28;20180;-91
2023/10/28 13:05:50;;;;;;;10.73;3.10;;;;;;;;;;5029113;28;20184;-91
2023/10/28 13:08:16;;;;;;;10.17;2.93;;;;;;;;;;5034767;28;20200;-91
2023/10/28 13:10:42;;;;;;;11.17;2.90;;;;;;;;;;5015968;28;20208;-89
2023/10/28 13:13:14;;;;;;;11.60;2.93;;;;;;;;;;5015548;28;20185;-90
2023/10/28 13:15:48;;;;;;;9.00;2.90;;;;;;;;;;5032384;28;20216;-92
2023/10/28 13:18:20;;;;;;;9.20;3.57;;;;;;;;;;5042769;28;20414;-91
2023/10/28 13:20:59;;;;;;;12.07;3.43;;;;;;;;;;5025874;28;20199;-91
2023/10/28 13:23:27;;;;;;;12.55;3.28;;;;;;;;;;5046684;28;20415;-91
2023/10/28 13:25:53;;;;;;;12.25;3.47;;;;;;;;;;5026191;28;20448;-91
2023/10/28 13:28:43;;;;;;;13.40;3.33;;;;;;;;;;5034621;28;20444;-87
2023/10/28 13:31:18;;;;;;;12.18;3.60;;;;;;;;;;5008203;28;20435;-86
2023/10/28 13:33:49;;;;;;;13.07;3.92;;;;;;;;;;5012995;28;20427;-87
2023/10/28 13:36:23;;;;;;;10.40;3.40;;;;;;;;;;5018611;28;20419;-87
2023/10/28 13:38:51;;;;;;;12.30;3.70;;;;;;;;;;5013221;28;20406;-87
2023/10/28 13:41:22;;;;;;;12.07;3.58;;;;;;;;;;5023181;28;20398;-86
2023/10/28 13:43:51;;;;;;;14.15;4.13;;;;;;;;;;5014641;28;20443;-91
2023/10/28 13:46:20;;;;;;;11.97;3.83;;;;;;;;;;5013374;28;20459;-90
2023/10/28 13:48:57;;;;;;;11.18;4.00;;;;;;;;;;5033400;28;20500;-90
2023/10/28 13:51:30;;;;;;;13.07;3.70;;;;;;;;;;5002821;28;20419;-91
2023/10/28 13:53:58;;;;;;;11.82;3.75;;;;;;;;;;5022680;28;20436;-91
2023/10/28 13:56:27;;;;;;;12.77;4.03;;;;;;;;;;5033097;28;20489;-91
2023/10/28 13:58:53;;;;;;;13.40;4.13;;;;;;;;;;5027243;28;20405;-91
2023/10/28 14:01:26;;;;;;;13.25;3.70;;;;;;;;;;5033915;28;20412;-91
2023/10/28 14:03:53;;;;;;;13.35;4.05;;;;;;;;;;5031148;28;20462;-90
2023/10/28 14:06:29;;;;;;;13.32;3.92;;;;;;;;;;5051617;28;20400;-90
2023/10/28 14:09:04;;;;;;;14.27;4.00;;;;;;;;;;5035875;28;20479;-89
2023/10/28 14:11:38;;;;;;;11.32;3.80;;;;;;;;;;5017479;28;20415;-89
2023/10/28 14:14:24;;;;;;;16.03;3.60;;;;;;;;;;5033957;28;20188;-90
2023/10/28 14:17:05;;;;;;;11.67;3.60;;;;;;;;;;5041534;28;20180;-90
2023/10/28 14:19:32;;;;;;;10.33;3.30;;;;;;;;;;5048308;28;20176;-90
2023/10/28 14:21:58;;;;;;;14.75;4.15;;;;;;;;;;5035604;28;20423;-90
2023/10/28 14:24:30;;;;;;;15.15;4.20;;;;;;;;;;5035367;28;20450;-90
2023/10/28 14:27:01;;;;;;;15.13;4.20;;;;;;;;;;5037791;28;20420;-90
2023/10/28 14:29:32;;;;;;;11.45;3.40;;;;;;;;;;5032613;28;20433;-90
2023/10/28 14:32:06;;;;;;;16.25;4.35;;;;;;;;;;5034616;28;20451;-91
2023/10/28 14:34:35;;;;;;;11.47;3.60;;;;;;;;;;5048244;28;20439;-86
2023/10/28 14:37:06;;;;;;;15.50;3.97;;;;;;;;;;5032455;28;20501;-86